sensor_id;sensor_type;location;lat;lon;timestamp;P1;durP1;ratioP1;P2;durP2;ratioP2
20593;SDS011;10455;48.732;10.266;2022-12-18T00:03:43;100.57;;;47.60;;
20593;SDS011;10455;48.732;10.266;2022-12-18T00:08:47;115.97;;;53.00;;
20593;SDS011;10455;48.732;10.266;2022-12-18T00:13:49;120.30;;;56.93;;
20593;SDS011;10455;48.732;10.266;2022-12-18T00:18:51;117.13;;;50.90;;
20593;SDS011;10455;48.732;10.266;2022-12-18T00:23:56;94.43;;;41.83;;
20593;SDS011;10455;48.732;10.266;2022-12-18T00:28:58;98.77;;;44.93;;
20593;SDS011;10455;48.732;10.266;2022-12-18T00:34:01;126.57;;;51.87;;
20593;SDS011;10455;48.732;10.266;2022-12-18T00:39:05;141.10;;;53.70;;
20593;SDS011;10455;48.732;10.266;2022-12-18T00:44:08;82.23;;;40.73;;
20593;SDS011;10455;48.732;10.266;2022-12-18T00:49:11;116.50;;;43.27;;
20593;SDS011;10455;48.732;10.266;2022-12-18T00:54:15;92.40;;;45.07;;
20593;SDS011;10455;48.732;10.266;2022-12-18T00:59:17;149.00;;;52.57;;
20593;SDS011;10455;48.732;10.266;2022-12-18T01:04:19;113.97;;;42.63;;
20593;SDS011;10455;48.732;10.266;2022-12-18T01:09:23;87.40;;;36.00;;
20593;SDS011;10455;48.732;10.266;2022-12-18T01:14:25;82.83;;;35.87;;
20593;SDS011;10455;48.732;10.266;2022-12-18T01:19:26;132.77;;;42.40;;
20593;SDS011;10455;48.732;10.266;2022-12-18T01:24:30;130.70;;;49.33;;
20593;SDS011;10455;48.732;10.266;2022-12-18T01:29:32;103.97;;;46.53;;
20593;SDS011;10455;48.732;10.266;2022-12-18T01:34:34;86.97;;;43.43;;
20593;SDS011;10455;48.732;10.266;2022-12-18T01:39:38;85.17;;;44.07;;
20593;SDS011;10455;48.732;10.266;2022-12-18T01:44:53;66.83;;;36.70;;
20593;SDS011;10455;48.732;10.266;2022-12-18T01:50:05;73.90;;;35.67;;
20593;SDS011;10455;48.732;10.266;2022-12-18T01:55:11;86.10;;;39.57;;
20593;SDS011;10455;48.732;10.266;2022-12-18T02:00:17;65.53;;;34.33;;
20593;SDS011;10455;48.732;10.266;2022-12-18T02:05:22;48.63;;;25.43;;
20593;SDS011;10455;48.732;10.266;2022-12-18T02:10:35;71.10;;;33.50;;
20593;SDS011;10455;48.732;10.266;2022-12-18T02:15:49;56.70;;;27.70;;
20593;SDS011;10455;48.732;10.266;2022-12-18T02:20:59;67.80;;;32.07;;
20593;SDS011;10455;48.732;10.266;2022-12-18T02:26:15;66.73;;;27.83;;
20593;SDS011;10455;48.732;10.266;2022-12-18T02:31:22;116.63;;;37.83;;
20593;SDS011;10455;48.732;10.266;2022-12-18T02:36:27;60.27;;;28.60;;
20593;SDS011;10455;48.732;10.266;2022-12-18T02:41:32;78.60;;;30.93;;
20593;SDS011;10455;48.732;10.266;2022-12-18T02:46:36;88.40;;;33.73;;
20593;SDS011;10455;48.732;10.266;2022-12-18T02:51:44;103.37;;;33.77;;
20593;SDS011;10455;48.732;10.266;2022-12-18T02:56:54;124.77;;;35.93;;
20593;SDS011;10455;48.732;10.266;2022-12-18T03:02:00;76.60;;;33.40;;
20593;SDS011;10455;48.732;10.266;2022-12-18T03:07:07;124.90;;;38.57;;
20593;SDS011;10455;48.732;10.266;2022-12-18T03:12:16;96.63;;;35.97;;
20593;SDS011;10455;48.732;10.266;2022-12-18T03:17:25;74.40;;;28.53;;
20593;SDS011;10455;48.732;10.266;2022-12-18T03:22:29;122.63;;;33.77;;
20593;SDS011;10455;48.732;10.266;2022-12-18T03:27:35;76.70;;;27.87;;
20593;SDS011;10455;48.732;10.266;2022-12-18T03:32:41;72.20;;;29.60;;
20593;SDS011;10455;48.732;10.266;2022-12-18T03:37:47;104.80;;;33.27;;
20593;SDS011;10455;48.732;10.266;2022-12-18T03:42:51;121.80;;;35.20;;
20593;SDS011;10455;48.732;10.266;2022-12-18T03:47:59;77.47;;;29.47;;
20593;SDS011;10455;48.732;10.266;2022-12-18T03:53:09;87.50;;;33.07;;
20593;SDS011;10455;48.732;10.266;2022-12-18T03:58:23;114.27;;;33.70;;
20593;SDS011;10455;48.732;10.266;2022-12-18T04:03:27;72.77;;;27.53;;
20593;SDS011;10455;48.732;10.266;2022-12-18T04:08:31;146.37;;;37.37;;
20593;SDS011;10455;48.732;10.266;2022-12-18T04:13:36;141.47;;;38.90;;
20593;SDS011;10455;48.732;10.266;2022-12-18T04:18:39;149.77;;;41.13;;
20593;SDS011;10455;48.732;10.266;2022-12-18T04:23:42;147.77;;;41.83;;
20593;SDS011;10455;48.732;10.266;2022-12-18T04:28:45;102.67;;;33.87;;
20593;SDS011;10455;48.732;10.266;2022-12-18T04:33:47;89.17;;;35.70;;
20593;SDS011;10455;48.732;10.266;2022-12-18T04:38:49;84.27;;;29.80;;
20593;SDS011;10455;48.732;10.266;2022-12-18T04:43:52;72.40;;;31.73;;
20593;SDS011;10455;48.732;10.266;2022-12-18T04:48:54;83.43;;;33.97;;
20593;SDS011;10455;48.732;10.266;2022-12-18T04:53:56;93.17;;;37.50;;
20593;SDS011;10455;48.732;10.266;2022-12-18T04:58:59;111.67;;;38.17;;
20593;SDS011;10455;48.732;10.266;2022-12-18T05:04:01;97.60;;;36.80;;
20593;SDS011;10455;48.732;10.266;2022-12-18T05:09:03;147.97;;;39.07;;
20593;SDS011;10455;48.732;10.266;2022-12-18T05:14:06;83.17;;;33.43;;
20593;SDS011;10455;48.732;10.266;2022-12-18T05:19:08;96.40;;;36.33;;
20593;SDS011;10455;48.732;10.266;2022-12-18T05:24:10;101.97;;;35.33;;
20593;SDS011;10455;48.732;10.266;2022-12-18T05:29:13;129.73;;;36.43;;
20593;SDS011;10455;48.732;10.266;2022-12-18T05:34:15;73.60;;;27.63;;
20593;SDS011;10455;48.732;10.266;2022-12-18T05:39:17;99.83;;;36.07;;
20593;SDS011;10455;48.732;10.266;2022-12-18T05:44:20;75.43;;;32.67;;
20593;SDS011;10455;48.732;10.266;2022-12-18T05:49:22;88.67;;;34.60;;
20593;SDS011;10455;48.732;10.266;2022-12-18T05:54:26;80.00;;;32.47;;
20593;SDS011;10455;48.732;10.266;2022-12-18T05:59:32;93.43;;;37.20;;
20593;SDS011;10455;48.732;10.266;2022-12-18T06:04:34;86.80;;;35.17;;
20593;SDS011;10455;48.732;10.266;2022-12-18T06:09:38;91.93;;;35.83;;
20593;SDS011;10455;48.732;10.266;2022-12-18T06:14:41;104.20;;;37.13;;
20593;SDS011;10455;48.732;10.266;2022-12-18T06:19:43;119.23;;;41.13;;
20593;SDS011;10455;48.732;10.266;2022-12-18T06:24:45;100.40;;;38.50;;
20593;SDS011;10455;48.732;10.266;2022-12-18T06:29:48;136.47;;;43.77;;
20593;SDS011;10455;48.732;10.266;2022-12-18T06:34:50;127.20;;;40.83;;
20593;SDS011;10455;48.732;10.266;2022-12-18T06:39:53;88.77;;;31.57;;
20593;SDS011;10455;48.732;10.266;2022-12-18T06:44:57;97.17;;;40.20;;
20593;SDS011;10455;48.732;10.266;2022-12-18T06:50:00;117.30;;;39.50;;
20593;SDS011;10455;48.732;10.266;2022-12-18T06:55:02;130.07;;;40.37;;
20593;SDS011;10455;48.732;10.266;2022-12-18T07:00:06;110.00;;;35.33;;
20593;SDS011;10455;48.732;10.266;2022-12-18T07:05:09;66.20;;;28.70;;
20593;SDS011;10455;48.732;10.266;2022-12-18T07:10:11;88.63;;;37.47;;
20593;SDS011;10455;48.732;10.266;2022-12-18T07:15:14;122.33;;;42.13;;
20593;SDS011;10455;48.732;10.266;2022-12-18T07:20:16;119.03;;;40.90;;
20593;SDS011;10455;48.732;10.266;2022-12-18T07:25:18;117.57;;;45.03;;
20593;SDS011;10455;48.732;10.266;2022-12-18T07:30:21;99.47;;;39.17;;
20593;SDS011;10455;48.732;10.266;2022-12-18T07:35:23;142.93;;;43.83;;
20593;SDS011;10455;48.732;10.266;2022-12-18T07:40:25;84.63;;;34.77;;
20593;SDS011;10455;48.732;10.266;2022-12-18T07:45:32;100.90;;;41.07;;
20593;SDS011;10455;48.732;10.266;2022-12-18T07:50:34;78.30;;;37.00;;
20593;SDS011;10455;48.732;10.266;2022-12-18T07:55:35;103.53;;;40.73;;
20593;SDS011;10455;48.732;10.266;2022-12-18T08:00:39;77.83;;;36.70;;
20593;SDS011;10455;48.732;10.266;2022-12-18T08:05:40;74.33;;;32.87;;
20593;SDS011;10455;48.732;10.266;2022-12-18T08:10:42;76.70;;;33.63;;
20593;SDS011;10455;48.732;10.266;2022-12-18T08:15:46;85.60;;;35.67;;
20593;SDS011;10455;48.732;10.266;2022-12-18T08:20:48;91.40;;;37.13;;
20593;SDS011;10455;48.732;10.266;2022-12-18T08:25:50;64.63;;;30.27;;
20593;SDS011;10455;48.732;10.266;2022-12-18T08:30:53;61.93;;;29.80;;
20593;SDS011;10455;48.732;10.266;2022-12-18T08:35:55;77.60;;;34.60;;
20593;SDS011;10455;48.732;10.266;2022-12-18T08:40:58;94.37;;;34.50;;
20593;SDS011;10455;48.732;10.266;2022-12-18T08:46:01;65.00;;;29.27;;
20593;SDS011;10455;48.732;10.266;2022-12-18T08:51:03;69.27;;;30.00;;
20593;SDS011;10455;48.732;10.266;2022-12-18T08:56:06;62.13;;;29.07;;
20593;SDS011;10455;48.732;10.266;2022-12-18T09:01:10;69.37;;;30.27;;
20593;SDS011;10455;48.732;10.266;2022-12-18T09:06:14;70.30;;;34.63;;
20593;SDS011;10455;48.732;10.266;2022-12-18T09:11:19;69.70;;;32.30;;
20593;SDS011;10455;48.732;10.266;2022-12-18T09:16:25;55.90;;;28.20;;
20593;SDS011;10455;48.732;10.266;2022-12-18T09:21:28;62.10;;;28.73;;
20593;SDS011;10455;48.732;10.266;2022-12-18T09:26:32;65.63;;;31.73;;
20593;SDS011;10455;48.732;10.266;2022-12-18T09:31:35;57.93;;;28.73;;
20593;SDS011;10455;48.732;10.266;2022-12-18T09:36:40;55.03;;;27.93;;
20593;SDS011;10455;48.732;10.266;2022-12-18T09:41:43;53.07;;;27.53;;
20593;SDS011;10455;48.732;10.266;2022-12-18T09:46:49;54.93;;;27.87;;
20593;SDS011;10455;48.732;10.266;2022-12-18T09:51:56;54.90;;;28.53;;
20593;SDS011;10455;48.732;10.266;2022-12-18T09:57:03;52.17;;;28.40;;
20593;SDS011;10455;48.732;10.266;2022-12-18T10:02:14;50.73;;;27.53;;
20593;SDS011;10455;48.732;10.266;2022-12-18T10:07:19;63.23;;;31.80;;
20593;SDS011;10455;48.732;10.266;2022-12-18T10:12:29;63.23;;;31.07;;
20593;SDS011;10455;48.732;10.266;2022-12-18T10:17:41;61.87;;;30.80;;
20593;SDS011;10455;48.732;10.266;2022-12-18T10:22:51;65.70;;;30.60;;
20593;SDS011;10455;48.732;10.266;2022-12-18T10:27:57;57.50;;;30.20;;
20593;SDS011;10455;48.732;10.266;2022-12-18T10:33:08;56.20;;;29.63;;
20593;SDS011;10455;48.732;10.266;2022-12-18T10:38:20;53.63;;;29.17;;
20593;SDS011;10455;48.732;10.266;2022-12-18T10:43:26;51.80;;;29.87;;
20593;SDS011;10455;48.732;10.266;2022-12-18T10:48:30;47.33;;;27.33;;
20593;SDS011;10455;48.732;10.266;2022-12-18T10:53:34;47.80;;;29.20;;
20593;SDS011;10455;48.732;10.266;2022-12-18T10:58:38;43.50;;;23.50;;
20593;SDS011;10455;48.732;10.266;2022-12-18T11:03:43;58.33;;;28.17;;
20593;SDS011;10455;48.732;10.266;2022-12-18T11:08:56;88.20;;;30.33;;
20593;SDS011;10455;48.732;10.266;2022-12-18T11:14:01;47.77;;;27.33;;
20593;SDS011;10455;48.732;10.266;2022-12-18T11:19:17;58.87;;;29.73;;
20593;SDS011;10455;48.732;10.266;2022-12-18T11:24:26;53.30;;;27.70;;
20593;SDS011;10455;48.732;10.266;2022-12-18T11:29:32;45.63;;;27.20;;
20593;SDS011;10455;48.732;10.266;2022-12-18T11:34:37;56.17;;;30.20;;
20593;SDS011;10455;48.732;10.266;2022-12-18T11:39:40;59.20;;;31.07;;
20593;SDS011;10455;48.732;10.266;2022-12-18T11:44:46;46.33;;;27.07;;
20593;SDS011;10455;48.732;10.266;2022-12-18T11:49:52;45.13;;;26.07;;
20593;SDS011;10455;48.732;10.266;2022-12-18T11:54:58;49.87;;;28.17;;
20593;SDS011;10455;48.732;10.266;2022-12-18T12:00:03;52.60;;;29.87;;
20593;SDS011;10455;48.732;10.266;2022-12-18T12:05:17;42.70;;;27.13;;
20593;SDS011;10455;48.732;10.266;2022-12-18T12:10:33;55.43;;;28.83;;
20593;SDS011;10455;48.732;10.266;2022-12-18T12:15:44;46.47;;;27.77;;
20593;SDS011;10455;48.732;10.266;2022-12-18T12:20:58;42.50;;;26.20;;
20593;SDS011;10455;48.732;10.266;2022-12-18T12:26:08;50.53;;;29.60;;
20593;SDS011;10455;48.732;10.266;2022-12-18T12:31:15;47.07;;;26.40;;
20593;SDS011;10455;48.732;10.266;2022-12-18T12:36:29;47.73;;;27.33;;
20593;SDS011;10455;48.732;10.266;2022-12-18T12:41:36;48.60;;;27.30;;
20593;SDS011;10455;48.732;10.266;2022-12-18T12:46:59;46.30;;;27.87;;
20593;SDS011;10455;48.732;10.266;2022-12-18T12:52:07;46.53;;;25.90;;
20593;SDS011;10455;48.732;10.266;2022-12-18T12:57:16;55.10;;;32.37;;
20593;SDS011;10455;48.732;10.266;2022-12-18T13:02:28;53.70;;;29.23;;
20593;SDS011;10455;48.732;10.266;2022-12-18T13:07:37;50.13;;;27.60;;
20593;SDS011;10455;48.732;10.266;2022-12-18T13:12:51;51.03;;;28.70;;
20593;SDS011;10455;48.732;10.266;2022-12-18T13:18:03;48.67;;;26.97;;
20593;SDS011;10455;48.732;10.266;2022-12-18T13:23:25;48.93;;;29.00;;
20593;SDS011;10455;48.732;10.266;2022-12-18T13:33:57;56.97;;;29.70;;
20593;SDS011;10455;48.732;10.266;2022-12-18T13:44:37;50.83;;;28.23;;
20593;SDS011;10455;48.732;10.266;2022-12-18T13:49:41;48.87;;;30.07;;
20593;SDS011;10455;48.732;10.266;2022-12-18T13:54:47;59.03;;;33.30;;
20593;SDS011;10455;48.732;10.266;2022-12-18T13:59:52;51.37;;;29.63;;
20593;SDS011;10455;48.732;10.266;2022-12-18T14:04:54;55.43;;;30.97;;
20593;SDS011;10455;48.732;10.266;2022-12-18T14:09:58;75.17;;;30.27;;
20593;SDS011;10455;48.732;10.266;2022-12-18T14:15:02;47.73;;;25.03;;
20593;SDS011;10455;48.732;10.266;2022-12-18T14:20:05;48.87;;;27.93;;
20593;SDS011;10455;48.732;10.266;2022-12-18T14:25:17;50.80;;;28.37;;
20593;SDS011;10455;48.732;10.266;2022-12-18T14:30:24;55.43;;;30.40;;
20593;SDS011;10455;48.732;10.266;2022-12-18T14:35:30;57.77;;;29.03;;
20593;SDS011;10455;48.732;10.266;2022-12-18T14:40:34;64.63;;;33.97;;
20593;SDS011;10455;48.732;10.266;2022-12-18T14:45:36;50.00;;;27.53;;
20593;SDS011;10455;48.732;10.266;2022-12-18T14:50:41;65.73;;;31.50;;
20593;SDS011;10455;48.732;10.266;2022-12-18T14:55:45;60.53;;;30.30;;
20593;SDS011;10455;48.732;10.266;2022-12-18T15:00:49;56.57;;;29.77;;
20593;SDS011;10455;48.732;10.266;2022-12-18T15:05:51;54.53;;;28.53;;
20593;SDS011;10455;48.732;10.266;2022-12-18T15:10:54;64.70;;;33.73;;
20593;SDS011;10455;48.732;10.266;2022-12-18T15:15:57;66.53;;;33.77;;
20593;SDS011;10455;48.732;10.266;2022-12-18T15:21:07;56.13;;;29.93;;
20593;SDS011;10455;48.732;10.266;2022-12-18T15:26:13;65.07;;;30.57;;
20593;SDS011;10455;48.732;10.266;2022-12-18T15:31:23;54.30;;;28.03;;
20593;SDS011;10455;48.732;10.266;2022-12-18T15:36:29;59.60;;;29.23;;
20593;SDS011;10455;48.732;10.266;2022-12-18T15:41:33;68.83;;;32.40;;
20593;SDS011;10455;48.732;10.266;2022-12-18T15:46:36;66.30;;;32.10;;
20593;SDS011;10455;48.732;10.266;2022-12-18T15:51:38;63.63;;;31.93;;
20593;SDS011;10455;48.732;10.266;2022-12-18T15:56:42;77.03;;;41.23;;
20593;SDS011;10455;48.732;10.266;2022-12-18T16:02:01;76.03;;;33.77;;
20593;SDS011;10455;48.732;10.266;2022-12-18T16:07:03;62.57;;;33.80;;
20593;SDS011;10455;48.732;10.266;2022-12-18T16:12:08;61.17;;;32.70;;
20593;SDS011;10455;48.732;10.266;2022-12-18T16:17:16;62.47;;;30.30;;
20593;SDS011;10455;48.732;10.266;2022-12-18T16:22:19;71.87;;;35.87;;
20593;SDS011;10455;48.732;10.266;2022-12-18T16:27:24;80.43;;;36.50;;
20593;SDS011;10455;48.732;10.266;2022-12-18T16:32:26;80.57;;;36.20;;
20593;SDS011;10455;48.732;10.266;2022-12-18T16:37:28;71.57;;;35.50;;
20593;SDS011;10455;48.732;10.266;2022-12-18T16:42:31;70.53;;;34.93;;
20593;SDS011;10455;48.732;10.266;2022-12-18T16:47:33;110.20;;;51.03;;
20593;SDS011;10455;48.732;10.266;2022-12-18T16:52:35;85.20;;;39.80;;
20593;SDS011;10455;48.732;10.266;2022-12-18T16:57:38;84.22;;;42.85;;
20593;SDS011;10455;48.732;10.266;2022-12-18T17:02:40;85.77;;;39.57;;
20593;SDS011;10455;48.732;10.266;2022-12-18T17:07:42;67.20;;;36.77;;
20593;SDS011;10455;48.732;10.266;2022-12-18T17:12:45;78.77;;;37.67;;
20593;SDS011;10455;48.732;10.266;2022-12-18T17:17:47;82.10;;;36.90;;
20593;SDS011;10455;48.732;10.266;2022-12-18T17:22:50;96.10;;;45.13;;
20593;SDS011;10455;48.732;10.266;2022-12-18T17:27:53;73.43;;;34.17;;
20593;SDS011;10455;48.732;10.266;2022-12-18T17:32:57;81.10;;;36.93;;
20593;SDS011;10455;48.732;10.266;2022-12-18T17:37:59;81.80;;;36.70;;
20593;SDS011;10455;48.732;10.266;2022-12-18T17:43:02;68.73;;;34.30;;
20593;SDS011;10455;48.732;10.266;2022-12-18T17:48:04;72.87;;;35.10;;
20593;SDS011;10455;48.732;10.266;2022-12-18T17:53:07;65.87;;;32.33;;
20593;SDS011;10455;48.732;10.266;2022-12-18T17:58:11;62.57;;;30.40;;
20593;SDS011;10455;48.732;10.266;2022-12-18T18:03:12;77.47;;;35.30;;
20593;SDS011;10455;48.732;10.266;2022-12-18T18:08:15;71.83;;;34.87;;
20593;SDS011;10455;48.732;10.266;2022-12-18T18:13:19;69.40;;;34.40;;
20593;SDS011;10455;48.732;10.266;2022-12-18T18:18:39;65.13;;;32.30;;
20593;SDS011;10455;48.732;10.266;2022-12-18T18:23:41;72.60;;;34.00;;
20593;SDS011;10455;48.732;10.266;2022-12-18T18:28:44;85.07;;;39.27;;
20593;SDS011;10455;48.732;10.266;2022-12-18T18:33:47;63.03;;;31.83;;
20593;SDS011;10455;48.732;10.266;2022-12-18T18:38:48;73.30;;;35.70;;
20593;SDS011;10455;48.732;10.266;2022-12-18T18:43:54;81.00;;;39.50;;
20593;SDS011;10455;48.732;10.266;2022-12-18T18:48:57;77.40;;;37.03;;
20593;SDS011;10455;48.732;10.266;2022-12-18T18:53:59;66.20;;;33.20;;
20593;SDS011;10455;48.732;10.266;2022-12-18T18:59:02;74.87;;;36.73;;
20593;SDS011;10455;48.732;10.266;2022-12-18T19:04:04;94.40;;;43.87;;
20593;SDS011;10455;48.732;10.266;2022-12-18T19:09:06;69.83;;;32.80;;
20593;SDS011;10455;48.732;10.266;2022-12-18T19:14:11;71.13;;;34.87;;
20593;SDS011;10455;48.732;10.266;2022-12-18T19:19:14;72.50;;;35.60;;
20593;SDS011;10455;48.732;10.266;2022-12-18T19:24:19;80.00;;;35.57;;
20593;SDS011;10455;48.732;10.266;2022-12-18T19:29:22;76.67;;;35.20;;
20593;SDS011;10455;48.732;10.266;2022-12-18T19:34:24;73.17;;;31.90;;
20593;SDS011;10455;48.732;10.266;2022-12-18T19:39:26;76.90;;;36.90;;
20593;SDS011;10455;48.732;10.266;2022-12-18T19:44:29;73.53;;;36.17;;
20593;SDS011;10455;48.732;10.266;2022-12-18T19:49:31;71.57;;;36.13;;
20593;SDS011;10455;48.732;10.266;2022-12-18T19:54:33;65.93;;;33.93;;
20593;SDS011;10455;48.732;10.266;2022-12-18T19:59:38;74.33;;;33.90;;
20593;SDS011;10455;48.732;10.266;2022-12-18T20:04:40;63.03;;;31.00;;
20593;SDS011;10455;48.732;10.266;2022-12-18T20:09:42;71.63;;;35.83;;
20593;SDS011;10455;48.732;10.266;2022-12-18T20:14:45;55.80;;;27.20;;
20593;SDS011;10455;48.732;10.266;2022-12-18T20:19:47;68.87;;;34.83;;
20593;SDS011;10455;48.732;10.266;2022-12-18T20:24:49;70.73;;;32.43;;
20593;SDS011;10455;48.732;10.266;2022-12-18T20:29:52;60.90;;;29.07;;
20593;SDS011;10455;48.732;10.266;2022-12-18T20:34:54;72.17;;;34.97;;
20593;SDS011;10455;48.732;10.266;2022-12-18T20:39:56;83.40;;;36.50;;
20593;SDS011;10455;48.732;10.266;2022-12-18T20:44:59;69.10;;;33.03;;
20593;SDS011;10455;48.732;10.266;2022-12-18T20:50:01;73.77;;;34.40;;
20593;SDS011;10455;48.732;10.266;2022-12-18T20:55:03;71.30;;;32.77;;
20593;SDS011;10455;48.732;10.266;2022-12-18T21:00:08;72.30;;;32.90;;
20593;SDS011;10455;48.732;10.266;2022-12-18T21:05:11;77.80;;;35.93;;
20593;SDS011;10455;48.732;10.266;2022-12-18T21:10:13;67.00;;;33.87;;
20593;SDS011;10455;48.732;10.266;2022-12-18T21:15:16;71.57;;;30.83;;
20593;SDS011;10455;48.732;10.266;2022-12-18T21:20:18;69.87;;;32.43;;
20593;SDS011;10455;48.732;10.266;2022-12-18T21:25:20;72.87;;;32.53;;
20593;SDS011;10455;48.732;10.266;2022-12-18T21:30:24;77.83;;;34.83;;
20593;SDS011;10455;48.732;10.266;2022-12-18T21:35:25;78.60;;;35.10;;
20593;SDS011;10455;48.732;10.266;2022-12-18T21:40:27;70.40;;;34.00;;
20593;SDS011;10455;48.732;10.266;2022-12-18T21:45:31;73.30;;;33.20;;
20593;SDS011;10455;48.732;10.266;2022-12-18T21:50:33;75.33;;;34.33;;
20593;SDS011;10455;48.732;10.266;2022-12-18T21:55:34;75.80;;;34.67;;
20593;SDS011;10455;48.732;10.266;2022-12-18T22:00:38;75.10;;;35.73;;
20593;SDS011;10455;48.732;10.266;2022-12-18T22:05:39;67.67;;;32.50;;
20593;SDS011;10455;48.732;10.266;2022-12-18T22:10:41;76.60;;;33.00;;
20593;SDS011;10455;48.732;10.266;2022-12-18T22:15:45;71.47;;;33.07;;
20593;SDS011;10455;48.732;10.266;2022-12-18T22:20:47;84.40;;;36.23;;
20593;SDS011;10455;48.732;10.266;2022-12-18T22:25:48;67.17;;;31.10;;
20593;SDS011;10455;48.732;10.266;2022-12-18T22:30:52;69.20;;;32.70;;
20593;SDS011;10455;48.732;10.266;2022-12-18T22:35:54;76.23;;;34.10;;
20593;SDS011;10455;48.732;10.266;2022-12-18T22:40:56;68.80;;;29.30;;
20593;SDS011;10455;48.732;10.266;2022-12-18T22:45:59;83.40;;;35.83;;
20593;SDS011;10455;48.732;10.266;2022-12-18T22:51:01;79.43;;;34.87;;
20593;SDS011;10455;48.732;10.266;2022-12-18T22:56:10;77.43;;;34.93;;
20593;SDS011;10455;48.732;10.266;2022-12-18T23:01:17;86.70;;;35.90;;
20593;SDS011;10455;48.732;10.266;2022-12-18T23:06:21;94.93;;;35.70;;
20593;SDS011;10455;48.732;10.266;2022-12-18T23:11:25;89.70;;;36.80;;
20593;SDS011;10455;48.732;10.266;2022-12-18T23:16:28;94.53;;;37.90;;
20593;SDS011;10455;48.732;10.266;2022-12-18T23:21:30;81.50;;;37.80;;
20593;SDS011;10455;48.732;10.266;2022-12-18T23:26:33;76.97;;;35.53;;
20593;SDS011;10455;48.732;10.266;2022-12-18T23:31:37;77.80;;;37.17;;
20593;SDS011;10455;48.732;10.266;2022-12-18T23:36:39;91.60;;;39.73;;
20593;SDS011;10455;48.732;10.266;2022-12-18T23:41:41;81.00;;;36.00;;
20593;SDS011;10455;48.732;10.266;2022-12-18T23:46:45;81.50;;;36.40;;
20593;SDS011;10455;48.732;10.266;2022-12-18T23:51:46;78.70;;;35.47;;
20593;SDS011;10455;48.732;10.266;2022-12-18T23:56:48;89.57;;;37.53;;
